createdAt,value
2023-02-16T00:00:43.994Z,92.27
2023-02-16T00:03:32.675Z,87.23
2023-02-16T00:06:22.013Z,90.10
2023-02-16T00:09:10.791Z,99.40
2023-02-16T00:12:16.862Z,96.60
2023-02-16T00:15:18.054Z,93.90
2023-02-16T00:18:16.962Z,93.00
2023-02-16T00:21:06.511Z,96.33
2023-02-16T00:23:55.320Z,100.63
2023-02-16T00:26:45.094Z,92.87
2023-02-16T00:29:37.585Z,102.00
2023-02-16T00:32:32.221Z,101.93
2023-02-16T00:35:23.155Z,102.37
2023-02-16T00:38:11.996Z,96.53
2023-02-16T00:41:00.875Z,98.73
2023-02-16T00:43:50.075Z,100.43
2023-02-16T00:46:38.837Z,102.73
2023-02-16T00:49:28.945Z,100.80
2023-02-16T00:52:31.121Z,106.33
2023-02-16T00:55:22.320Z,96.43
2023-02-16T00:58:16.683Z,99.03
2023-02-16T01:01:09.813Z,96.37
2023-02-16T01:03:59.707Z,100.63
2023-02-16T01:07:07.461Z,92.47
2023-02-16T01:10:13.849Z,103.53
2023-02-16T01:13:03.717Z,98.80
2023-02-16T01:15:52.557Z,95.90
2023-02-16T01:18:42.594Z,100.00
2023-02-16T01:21:31.440Z,99.73
2023-02-16T01:24:24.449Z,104.37
2023-02-16T01:27:15.079Z,101.40
2023-02-16T01:30:10.395Z,101.20
2023-02-16T01:32:59.511Z,106.90
2023-02-16T01:35:48.823Z,99.67
2023-02-16T01:38:37.552Z,102.30
2023-02-16T01:41:42.949Z,103.17
2023-02-16T01:44:35.691Z,100.13
2023-02-16T01:47:35.726Z,105.47
2023-02-16T01:50:28.968Z,98.80
2023-02-16T01:53:24.283Z,104.53
2023-02-16T01:56:21.417Z,100.90
2023-02-16T01:59:22.450Z,100.73
2023-02-16T02:02:18.096Z,100.23
2023-02-16T02:05:34.437Z,104.27
2023-02-16T02:08:31.966Z,102.87
2023-02-16T02:11:27.921Z,98.63
2023-02-16T02:14:25.406Z,100.37
2023-02-16T02:17:18.974Z,100.37
2023-02-16T02:20:13.763Z,100.53
2023-02-16T02:23:33.315Z,103.37
2023-02-16T02:27:11.034Z,102.73
2023-02-16T02:30:28.675Z,107.37
2023-02-16T02:33:34.028Z,103.67
2023-02-16T02:36:32.238Z,101.60
2023-02-16T02:39:35.300Z,98.87
2023-02-16T02:42:33.255Z,105.60
2023-02-16T02:45:26.261Z,92.07
2023-02-16T02:48:18.296Z,99.27
2023-02-16T02:51:31.163Z,100.27
2023-02-16T02:54:48.802Z,105.33
2023-02-16T02:57:59.510Z,100.07
2023-02-16T03:00:52.035Z,100.03
2023-02-16T03:03:45.351Z,94.20
2023-02-16T03:06:37.472Z,110.33
2023-02-16T03:09:26.710Z,97.83
2023-02-16T03:12:33.533Z,105.87
2023-02-16T03:15:23.370Z,97.23
2023-02-16T03:18:32.922Z,98.53
2023-02-16T03:21:38.965Z,102.47
2023-02-16T03:24:47.349Z,102.50
2023-02-16T03:28:02.839Z,98.63
2023-02-16T03:30:52.713Z,104.17
2023-02-16T03:33:43.862Z,100.47
2023-02-16T03:36:37.278Z,100.60
2023-02-16T03:39:27.378Z,109.20
2023-02-16T03:42:17.082Z,104.03
2023-02-16T03:45:06.355Z,106.37
2023-02-16T03:47:55.923Z,102.13
2023-02-16T03:50:46.050Z,104.10
2023-02-16T03:53:38.447Z,104.97
2023-02-16T03:56:27.155Z,100.23
2023-02-16T03:59:15.951Z,101.90
2023-02-16T04:02:04.625Z,104.40
2023-02-16T04:04:56.930Z,96.57
2023-02-16T04:07:47.018Z,101.17
2023-02-16T04:10:37.148Z,100.10
2023-02-16T04:13:25.126Z,98.03
2023-02-16T04:16:13.787Z,97.60
2023-02-16T04:19:03.948Z,106.93
2023-02-16T04:21:53.836Z,106.40
2023-02-16T04:24:43.817Z,101.43
2023-02-16T04:27:32.632Z,98.50
2023-02-16T04:30:23.839Z,96.47
2023-02-16T04:33:12.573Z,104.50
2023-02-16T04:36:04.522Z,103.50
2023-02-16T04:38:53.267Z,101.67
2023-02-16T04:41:43.495Z,102.90
2023-02-16T04:44:32.292Z,96.63
2023-02-16T04:47:23.218Z,104.27
2023-02-16T04:50:13.459Z,104.83
2023-02-16T04:53:02.484Z,97.27
2023-02-16T04:55:51.863Z,99.93
2023-02-16T04:58:42.520Z,98.20
2023-02-16T05:01:31.322Z,94.70
2023-02-16T05:04:20.087Z,100.17
2023-02-16T05:07:08.907Z,99.70
2023-02-16T05:09:57.606Z,92.77
2023-02-16T05:13:08.832Z,93.60
2023-02-16T05:15:58.997Z,94.43
2023-02-16T05:18:51.864Z,104.43
2023-02-16T05:21:40.666Z,97.90
2023-02-16T05:24:29.494Z,98.20
2023-02-16T05:27:19.903Z,96.90
2023-02-16T05:30:09.799Z,100.10
2023-02-16T05:32:59.964Z,94.17
2023-02-16T05:35:49.335Z,104.00
2023-02-16T05:38:38.079Z,96.30
2023-02-16T05:41:27.144Z,100.17
2023-02-16T05:44:16.018Z,104.40
2023-02-16T05:47:05.072Z,98.10
2023-02-16T05:49:55.179Z,100.20
2023-02-16T05:52:43.944Z,102.13
2023-02-16T05:55:32.808Z,100.73
2023-02-16T05:58:21.488Z,102.30
2023-02-16T06:01:10.279Z,104.80
2023-02-16T06:03:59.103Z,96.33
2023-02-16T06:06:49.719Z,104.30
2023-02-16T06:09:38.354Z,102.93
2023-02-16T06:12:38.290Z,100.30
2023-02-16T06:15:26.973Z,95.67
2023-02-16T06:18:15.940Z,100.70
2023-02-16T06:21:05.222Z,98.50
2023-02-16T06:23:56.429Z,97.97
2023-02-16T06:26:45.525Z,99.10
2023-02-16T06:29:34.708Z,96.30
2023-02-16T06:32:23.754Z,99.17
2023-02-16T06:35:12.871Z,97.67
2023-02-16T06:38:01.576Z,94.27
2023-02-16T06:40:53.191Z,90.90
2023-02-16T06:43:42.138Z,97.53
2023-02-16T06:46:31.508Z,98.53
2023-02-16T06:49:22.499Z,99.00
2023-02-16T06:52:11.665Z,101.33
2023-02-16T06:55:00.444Z,92.27
2023-02-16T06:57:51.170Z,96.93
2023-02-16T07:00:40.255Z,99.13
2023-02-16T07:03:29.698Z,98.83
2023-02-16T07:06:18.807Z,97.00
2023-02-16T07:09:07.645Z,88.70
2023-02-16T07:11:56.493Z,90.23
2023-02-16T07:14:46.580Z,92.37
2023-02-16T07:17:35.435Z,94.50
2023-02-16T07:20:24.233Z,100.63
2023-02-16T07:23:12.988Z,99.80
2023-02-16T07:26:02.036Z,93.60
2023-02-16T07:28:50.826Z,99.17
2023-02-16T07:31:40.947Z,95.07
2023-02-16T07:34:29.696Z,94.30
2023-02-16T07:37:18.395Z,96.07
2023-02-16T07:40:08.763Z,100.30
2023-02-16T07:43:01.584Z,103.60
2023-02-16T07:45:50.512Z,92.37
2023-02-16T07:48:40.662Z,91.77
2023-02-16T07:51:32.020Z,99.23
2023-02-16T07:54:21.108Z,92.23
2023-02-16T07:57:11.126Z,94.13
2023-02-16T07:59:59.885Z,96.27
2023-02-16T08:02:48.843Z,89.83
2023-02-16T08:05:39.352Z,90.33
2023-02-16T08:08:28.679Z,85.97
2023-02-16T08:11:19.200Z,93.87
2023-02-16T08:14:08.118Z,97.47
2023-02-16T08:16:57.079Z,93.63
2023-02-16T08:19:46.050Z,96.87
2023-02-16T08:22:37.133Z,89.53
2023-02-16T08:25:26.885Z,94.13
2023-02-16T08:28:15.766Z,94.27
2023-02-16T08:31:05.230Z,92.80
2023-02-16T08:33:55.487Z,87.30
2023-02-16T08:36:46.419Z,95.97
2023-02-16T08:39:37.204Z,94.60
2023-02-16T08:42:26.711Z,91.23
2023-02-16T08:45:16.269Z,93.63
2023-02-16T08:48:05.728Z,91.10
2023-02-16T08:50:55.095Z,93.37
2023-02-16T08:53:44.404Z,88.90
2023-02-16T08:56:34.860Z,88.70
2023-02-16T08:59:27.253Z,95.17
2023-02-16T09:02:18.139Z,91.33
2023-02-16T09:05:07.580Z,90.13
2023-02-16T09:07:56.429Z,83.03
2023-02-16T09:10:45.346Z,81.50
2023-02-16T09:13:37.941Z,81.83
2023-02-16T09:16:28.137Z,78.77
2023-02-16T09:19:19.268Z,78.23
2023-02-16T09:22:08.207Z,76.83
2023-02-16T09:24:56.912Z,85.40
2023-02-16T09:27:45.802Z,78.00
2023-02-16T09:30:36.676Z,78.17
2023-02-16T09:33:26.507Z,78.70
2023-02-16T09:36:15.760Z,79.30
2023-02-16T09:39:04.565Z,79.37
2023-02-16T09:42:09.156Z,77.97
2023-02-16T09:45:07.696Z,78.70
2023-02-16T09:47:59.603Z,76.93
2023-02-16T09:50:54.271Z,80.17
2023-02-16T09:53:45.216Z,80.50
2023-02-16T09:56:42.116Z,78.13
2023-02-16T09:59:45.322Z,75.00
2023-02-16T10:02:43.535Z,82.00
2023-02-16T10:05:44.629Z,72.20
2023-02-16T10:08:39.023Z,77.27
2023-02-16T10:11:46.948Z,76.73
2023-02-16T10:14:42.653Z,78.20
2023-02-16T10:17:37.864Z,74.73
2023-02-16T10:20:32.808Z,73.87
2023-02-16T10:23:36.054Z,73.13
2023-02-16T10:26:32.145Z,76.90
2023-02-16T10:29:24.083Z,80.07
2023-02-16T10:32:23.325Z,79.53
2023-02-16T10:35:17.464Z,73.87
2023-02-16T10:38:12.033Z,78.30
2023-02-16T10:41:09.083Z,74.83
2023-02-16T10:44:02.815Z,68.57
2023-02-16T10:46:58.359Z,77.87
2023-02-16T10:49:48.712Z,75.97
2023-02-16T10:52:41.915Z,77.87
2023-02-16T10:55:31.012Z,81.93
2023-02-16T10:58:26.745Z,70.60
2023-02-16T11:01:19.029Z,73.53
2023-02-16T11:04:08.020Z,75.03
2023-02-16T11:07:05.084Z,81.43
2023-02-16T11:09:56.609Z,75.57
2023-02-16T11:12:45.665Z,74.17
2023-02-16T11:15:38.734Z,71.83
2023-02-16T11:18:34.318Z,72.57
2023-02-16T11:21:42.826Z,68.03
2023-02-16T11:24:34.132Z,71.53
2023-02-16T11:27:26.092Z,68.97
2023-02-16T11:30:22.802Z,71.93
2023-02-16T11:33:25.151Z,75.53
2023-02-16T11:36:22.313Z,73.27
2023-02-16T11:39:20.583Z,68.80
2023-02-16T11:42:11.612Z,69.03
2023-02-16T11:45:02.991Z,61.83
2023-02-16T11:47:55.895Z,69.33
2023-02-16T11:50:57.922Z,67.20
2023-02-16T11:53:47.480Z,60.07
2023-02-16T11:56:37.562Z,65.40
2023-02-16T11:59:26.985Z,67.63
2023-02-16T12:02:44.637Z,63.30
2023-02-16T12:05:45.470Z,62.50
2023-02-16T12:08:53.902Z,62.63
2023-02-16T12:11:53.257Z,60.23
2023-02-16T12:14:54.254Z,57.13
2023-02-16T12:17:55.781Z,56.57
2023-02-16T12:20:53.214Z,59.27
2023-02-16T12:23:55.343Z,57.50
2023-02-16T12:26:50.116Z,57.07
2023-02-16T12:29:47.938Z,54.17
2023-02-16T12:32:49.218Z,57.13
2023-02-16T12:36:07.084Z,55.93
2023-02-16T12:39:04.930Z,54.43
2023-02-16T12:42:05.000Z,54.87
2023-02-16T12:44:57.157Z,58.13
2023-02-16T12:47:51.546Z,60.63
2023-02-16T12:50:45.059Z,54.10
2023-02-16T12:53:43.368Z,57.67
2023-02-16T12:56:39.637Z,69.17
2023-02-16T12:59:40.077Z,63.13
2023-02-16T13:02:34.379Z,60.27
2023-02-16T13:05:28.601Z,59.83
2023-02-16T13:08:24.835Z,57.70
2023-02-16T13:11:21.382Z,57.90
2023-02-16T13:14:19.574Z,53.50
2023-02-16T13:17:15.383Z,53.00
2023-02-16T13:20:05.036Z,56.03
2023-02-16T13:23:30.076Z,55.87
2023-02-16T13:26:42.471Z,57.57
2023-02-16T13:30:10.699Z,58.23
2023-02-16T13:33:17.050Z,60.53
2023-02-16T13:36:28.827Z,59.03
2023-02-16T13:39:47.961Z,63.03
2023-02-16T13:43:14.107Z,66.27
2023-02-16T13:46:13.010Z,58.43
2023-02-16T13:49:03.358Z,65.00
2023-02-16T13:51:52.540Z,61.73
2023-02-16T13:54:43.893Z,62.60
2023-02-16T13:58:04.614Z,64.30
2023-02-16T14:00:53.324Z,60.50
2023-02-16T14:03:43.655Z,61.20
2023-02-16T14:06:37.227Z,61.77
2023-02-16T14:09:35.119Z,63.13
2023-02-16T14:12:31.555Z,62.67
2023-02-16T14:15:21.946Z,65.23
2023-02-16T14:18:23.343Z,65.30
2023-02-16T14:21:29.760Z,63.83
2023-02-16T14:24:30.734Z,68.03
2023-02-16T14:27:44.519Z,67.90
2023-02-16T14:30:37.208Z,77.20
2023-02-16T14:33:40.916Z,69.67
2023-02-16T14:36:32.514Z,77.95
2023-02-16T14:39:23.307Z,69.00
2023-02-16T14:42:17.197Z,68.53
2023-02-16T14:45:34.547Z,71.25
2023-02-16T14:48:59.259Z,78.15
2023-02-16T14:52:27.504Z,93.50
2023-02-16T14:55:48.939Z,71.77
2023-02-16T14:58:46.778Z,72.43
2023-02-16T15:01:41.895Z,69.37
2023-02-16T15:04:32.307Z,76.83
2023-02-16T15:07:24.713Z,68.57
2023-02-16T15:10:18.578Z,70.73
2023-02-16T15:13:07.796Z,72.33
2023-02-16T15:15:58.887Z,71.47
2023-02-16T15:18:52.132Z,71.43
2023-02-16T15:21:41.225Z,72.70
2023-02-16T15:24:31.709Z,71.83
2023-02-16T15:27:23.723Z,63.08
2023-02-16T15:30:31.676Z,82.90
2023-02-16T15:33:32.673Z,70.37
2023-02-16T15:36:24.557Z,68.27
2023-02-16T15:39:16.698Z,62.10
2023-02-16T15:42:21.041Z,67.90
2023-02-16T15:45:30.209Z,63.53
2023-02-16T15:48:26.050Z,66.13
2023-02-16T15:51:19.311Z,71.37
2023-02-16T15:54:18.545Z,66.60
2023-02-16T15:57:16.532Z,66.30
2023-02-16T16:00:10.052Z,71.10
2023-02-16T16:03:02.704Z,62.23
2023-02-16T16:06:04.059Z,67.57
2023-02-16T16:08:52.992Z,71.40
2023-02-16T16:11:42.029Z,72.63
2023-02-16T16:14:36.244Z,71.37
2023-02-16T16:17:31.070Z,74.10
2023-02-16T16:20:28.860Z,66.60
2023-02-16T16:23:28.484Z,62.33
2023-02-16T16:26:22.519Z,71.73
2023-02-16T16:29:45.871Z,69.23
2023-02-16T16:32:35.028Z,73.00
2023-02-16T16:35:35.080Z,74.13
2023-02-16T16:38:27.127Z,70.87
2023-02-16T16:41:27.781Z,67.50
2023-02-16T16:44:35.613Z,70.77
2023-02-16T16:47:28.280Z,72.83
2023-02-16T16:50:38.988Z,68.17
2023-02-16T16:53:52.516Z,76.10
2023-02-16T16:56:42.514Z,71.60
2023-02-16T16:59:31.325Z,69.70
2023-02-16T17:02:24.894Z,71.87
2023-02-16T17:05:13.717Z,65.83
2023-02-16T17:08:02.660Z,70.97
2023-02-16T17:10:51.727Z,74.07
2023-02-16T17:13:40.736Z,70.47
2023-02-16T17:16:32.824Z,71.70
2023-02-16T17:19:27.299Z,71.73
2023-02-16T17:22:17.383Z,74.53
2023-02-16T17:25:07.155Z,68.30
2023-02-16T17:27:57.745Z,72.90
2023-02-16T17:30:47.049Z,65.73
2023-02-16T17:33:36.418Z,68.83
2023-02-16T17:36:28.780Z,69.47
2023-02-16T17:39:17.689Z,72.87
2023-02-16T17:42:08.119Z,65.50
2023-02-16T17:44:57.067Z,71.33
2023-02-16T17:47:46.317Z,73.17
2023-02-16T17:50:35.198Z,71.27
2023-02-16T17:53:27.283Z,76.27
2023-02-16T17:56:17.875Z,79.70
2023-02-16T17:59:07.485Z,76.17
2023-02-16T18:01:56.208Z,70.37
2023-02-16T18:04:44.903Z,82.03
2023-02-16T18:07:33.658Z,81.90
2023-02-16T18:10:35.420Z,84.17
2023-02-16T18:13:24.178Z,85.03
2023-02-16T18:16:18.016Z,78.80
2023-02-16T18:19:08.842Z,84.57
2023-02-16T18:21:57.927Z,84.80
2023-02-16T18:24:47.603Z,84.57
2023-02-16T18:27:37.866Z,84.33
2023-02-16T18:30:26.985Z,85.27
2023-02-16T18:33:16.261Z,84.37
2023-02-16T18:36:07.309Z,90.03
2023-02-16T18:38:56.331Z,84.40
2023-02-16T18:41:45.100Z,88.70
2023-02-16T18:44:36.445Z,83.27
2023-02-16T18:47:25.327Z,82.40
2023-02-16T18:50:14.551Z,84.77
2023-02-16T18:53:03.704Z,87.70
2023-02-16T18:55:52.563Z,80.73
2023-02-16T18:58:41.363Z,79.30
2023-02-16T19:01:34.113Z,88.80
2023-02-16T19:04:23.615Z,84.57
2023-02-16T19:07:13.174Z,78.40
2023-02-16T19:10:02.230Z,78.93
2023-02-16T19:12:51.379Z,85.47
2023-02-16T19:15:40.398Z,79.47
2023-02-16T19:18:32.244Z,80.97
2023-02-16T19:21:22.274Z,82.23
2023-02-16T19:24:13.817Z,75.93
2023-02-16T19:27:03.132Z,74.70
2023-02-16T19:29:52.026Z,76.97
2023-02-16T19:32:41.753Z,80.47
2023-02-16T19:35:32.469Z,77.83
2023-02-16T19:38:22.589Z,73.57
2023-02-16T19:41:14.071Z,72.23
2023-02-16T19:44:03.673Z,77.50
2023-02-16T19:46:52.465Z,70.47
2023-02-16T19:49:41.597Z,75.67
2023-02-16T19:52:31.731Z,76.93
2023-02-16T19:55:22.491Z,76.27
2023-02-16T19:58:11.687Z,69.67
2023-02-16T20:01:00.461Z,76.73
2023-02-16T20:03:50.833Z,76.93
2023-02-16T20:06:41.919Z,75.53
2023-02-16T20:09:32.731Z,72.57
2023-02-16T20:12:22.305Z,70.57
2023-02-16T20:15:14.131Z,74.47
2023-02-16T20:18:03.136Z,74.67
2023-02-16T20:20:59.414Z,75.37
2023-02-16T20:23:49.243Z,76.83
2023-02-16T20:26:42.025Z,76.03
2023-02-16T20:29:31.081Z,70.67
2023-02-16T20:32:21.061Z,83.60
2023-02-16T20:35:10.393Z,76.07
2023-02-16T20:37:59.252Z,78.67
2023-02-16T20:40:48.094Z,72.10
2023-02-16T20:43:38.498Z,76.60
2023-02-16T20:46:27.569Z,82.77
2023-02-16T20:49:16.510Z,84.60
2023-02-16T20:52:05.583Z,80.13
2023-02-16T20:54:54.309Z,83.50
2023-02-16T20:57:43.282Z,75.53
2023-02-16T21:00:33.722Z,82.23
2023-02-16T21:03:23.527Z,80.30
2023-02-16T21:06:12.563Z,82.27
2023-02-16T21:09:01.324Z,78.07
2023-02-16T21:11:50.464Z,78.27
2023-02-16T21:14:39.289Z,80.53
2023-02-16T21:17:31.198Z,77.10
2023-02-16T21:20:22.394Z,78.03
2023-02-16T21:23:11.231Z,81.50
2023-02-16T21:26:01.213Z,78.40
2023-02-16T21:28:50.884Z,83.17
2023-02-16T21:31:39.876Z,79.97
2023-02-16T21:34:30.171Z,73.07
2023-02-16T21:37:18.958Z,80.63
2023-02-16T21:40:26.952Z,78.93
2023-02-16T21:43:16.119Z,82.33
2023-02-16T21:46:05.404Z,78.30
2023-02-16T21:48:55.222Z,80.33
2023-02-16T21:51:47.003Z,87.30
2023-02-16T21:54:49.644Z,78.83
2023-02-16T21:57:38.975Z,77.20
2023-02-16T22:00:28.106Z,82.30
2023-02-16T22:03:16.829Z,83.00
2023-02-16T22:06:07.285Z,79.17
2023-02-16T22:08:57.721Z,84.40
2023-02-16T22:11:47.704Z,84.53
2023-02-16T22:14:36.797Z,81.30
2023-02-16T22:17:25.668Z,85.93
2023-02-16T22:20:14.546Z,82.37
2023-02-16T22:23:03.609Z,87.60
2023-02-16T22:25:53.666Z,78.90
2023-02-16T22:28:42.414Z,81.37
2023-02-16T22:31:31.374Z,76.70
2023-02-16T22:34:22.966Z,83.87
2023-02-16T22:37:11.907Z,83.13
2023-02-16T22:40:00.841Z,79.90
2023-02-16T22:42:51.133Z,84.63
2023-02-16T22:45:40.212Z,80.23
2023-02-16T22:48:28.978Z,81.33
2023-02-16T22:51:19.372Z,79.67
2023-02-16T22:54:08.599Z,80.77
2023-02-16T22:56:57.458Z,79.60
2023-02-16T22:59:48.095Z,83.30
2023-02-16T23:02:37.730Z,78.33
2023-02-16T23:05:26.528Z,82.27
2023-02-16T23:08:15.571Z,78.63
2023-02-16T23:11:05.827Z,80.73
2023-02-16T23:13:54.684Z,75.27
2023-02-16T23:16:45.674Z,76.70
2023-02-16T23:19:34.523Z,77.50
2023-02-16T23:22:23.826Z,77.70
2023-02-16T23:25:29.951Z,77.33
2023-02-16T23:28:18.653Z,78.13
2023-02-16T23:31:12.832Z,79.47
2023-02-16T23:34:03.746Z,76.87
2023-02-16T23:36:52.584Z,83.63
2023-02-16T23:39:41.241Z,80.03
2023-02-16T23:42:29.928Z,80.13
2023-02-16T23:45:18.890Z,85.37
2023-02-16T23:48:07.870Z,80.00
2023-02-16T23:50:58.278Z,78.73
2023-02-16T23:53:46.892Z,82.97
2023-02-16T23:56:35.604Z,81.20
2023-02-16T23:59:24.389Z,83.30
